Toronto, Ontario

3:44 PM EST on December 19, 2014 (GMT -0500)
Liberty Village | Change Station
CLOSE
Current Station
Personal Weather Station
Location: Toronto, ON
Elevation: 331 ft
Nearby Weather Stations

Elev 331 ft 43.64 °N, 79.43 °W | Updated 6 seconds ago

Clear
Clear
32.1 °F
Feels Like 32 °F
N
2.0
Wind Variable Wind from North
Gusts 12.0 mph

Today is forecast to be nearly the same temperature as yesterday.

Today
High -- | Low -- °F
--% Chance of Precip.
Yesterday
High -- | Low -- °F
Precip. -- in
7:46 AM 4:42 PM
Waning Crescent, 6% visible
Pressure 30.22 in
Visibility 9.0 miles
Clouds Clear
Windchill 32 °F
Dew Point 23 °F
Humidity 69%
Rainfall 0.00 in
Snow Depth Not available.
UV 0.0 out of 12
Pollen Not available.
Air Quality Not available.
Flu Activity Not available.
METAR CYTZ 192000Z AUTO 33008KT 9SM CLR M00/M06 A3020 RMK SLP231

More Conditions Fewer Conditions

Pressure 30.22 in
Visibility 9.0 miles
Clouds Clear
Windchill 32 °F
Dew Point 23 °F
Humidity 69%
Rainfall 0.00 in
Snow Depth Not available.
UV 0.0 out of 12
Pollen Not available.
Air Quality Not available.
Flu Activity Not available.
METAR CYTZ 192000Z AUTO 33008KT 9SM CLR M00/M06 A3020 RMK SLP231

More Conditions Fewer Conditions

10-Day Weather Forecast

Almanac

Astronomy

Dec. 19, 2014 Rise Set
Actual Time
Civil Twilight
Nautical Twilight
Astronomical Twilight
Moon
Length of Visible Light
Length of Day
Tomorrow will be .
, % of the Moon is Illuminated

Today's Extremes

Country Highs Country Lows

Community

WunderPhotos

Upload Photos

1,779,048 photos uploaded!

WunderBlogs® & News

Nearby

Air Quality

  Air Quality AQ Index Pollutant
Not available.

Snow Depth

Station Depth Elevation

Earthquake Activity

City Distance Mag. Time & Date
Minimum magnitude displayed is 2.5.

Coastal Water Temperatures

Place Temperature

Nearby Weather Stations